Time;durP1;ratioP1;P1;durP2;ratioP2;P2;SDS_P1;SDS_P2;PMS_P1;PMS_P2;Temp;Humidity;BMP_temperature;BMP_pressure;BME280_temperature;BME280_humidity;BME280_pressure;Samples;Min_cycle;Max_cycle;Signal;HPM_P1;HPM_P2
2021/10/15 03:12:49;;;;;;;15.60;11.53;;;;;;;;;;5002278;28;20240;-82
2021/10/15 03:15:23;;;;;;;13.87;11.40;;;;;;;;;;5045100;28;20497;-83
2021/10/15 03:17:56;;;;;;;12.23;10.37;;;;;;;;;;5054793;28;20991;-83
2021/10/15 03:23:13;;;;;;;13.00;11.33;;;;;;;;;;5058429;28;20427;-82
2021/10/15 03:25:58;;;;;;;14.40;11.77;;;;;;;;;;5058729;28;20490;-82
2021/10/15 03:28:52;;;;;;;;;;;;;;;;;;;;;
2021/10/15 03:31:27;;;;;;;15.33;10.80;;;;;;;;;;5046226;28;20449;-82
2021/10/15 03:34:10;;;;;;;12.90;10.43;;;;;;;;;;5045407;28;20493;-83
2021/10/15 03:39:47;;;;;;;16.17;11.87;;;;;;;;;;5040561;28;20417;-83
2021/10/15 03:42:23;;;;;;;16.60;14.37;;;;;;;;;;5042941;28;20454;-83
2021/10/15 03:45:05;;;;;;;13.83;12.47;;;;;;;;;;5043820;28;20465;-83
2021/10/15 03:47:45;;;;;;;14.30;12.90;;;;;;;;;;5045039;28;20463;-83
2021/10/15 07:16:44;;;;;;;8.40;6.20;;;12.90;99.90;;;;;;5050061;23;20926;-86
2021/10/15 07:19:11;;;;;;;7.80;6.63;;;;;;;;;;5009116;28;20471;-86
2021/10/15 07:21:38;;;;;;;8.93;5.50;;;12.60;99.90;;;;;;5013915;28;20453;-86
2021/10/15 07:24:05;;;;;;;6.67;5.97;;;;;;;;;;5012833;28;20457;-86
2021/10/15 07:26:32;;;;;;;7.70;6.10;;;12.70;99.90;;;;;;5011530;28;20429;-85
2021/10/15 07:28:59;;;;;;;7.60;6.13;;;12.60;99.90;;;;;;5008327;28;20493;-86
2021/10/15 07:31:26;;;;;;;7.83;6.77;;;;;;;;;;5009609;28;20456;-85
2021/10/15 07:33:54;;;;;;;7.80;6.10;;;12.60;99.90;;;;;;5015417;28;20508;-84
2021/10/15 07:36:21;;;;;;;7.47;5.43;;;;;;;;;;5019773;28;20460;-85
2021/10/15 07:38:47;;;;;;;6.87;6.00;;;12.60;99.90;;;;;;5018830;28;20481;-84
2021/10/15 07:41:14;;;;;;;6.30;5.67;;;;;;;;;;5014070;28;20464;-87
2021/10/15 07:43:41;;;;;;;9.80;5.77;;;12.70;99.90;;;;;;5019766;28;20404;-85
2021/10/15 07:46:08;;;;;;;7.53;6.27;;;12.70;99.90;;;;;;5013505;28;20462;-86
2021/10/15 07:48:34;;;;;;;6.73;5.93;;;12.70;99.90;;;;;;5010095;28;20493;-85
2021/10/15 07:51:02;;;;;;;7.17;6.40;;;12.70;99.90;;;;;;5017275;28;20441;-84
2021/10/15 07:53:29;;;;;;;7.17;5.50;;;12.80;99.90;;;;;;5017019;28;20481;-84
2021/10/15 07:55:56;;;;;;;12.33;5.13;;;;;;;;;;5017159;28;20477;-84
2021/10/15 07:58:22;;;;;;;5.60;5.00;;;12.90;99.90;;;;;;5016347;28;20560;-85
2021/10/15 08:00:49;;;;;;;7.00;4.93;;;12.80;99.90;;;;;;5016407;28;20445;-86
2021/10/15 08:03:16;;;;;;;8.93;5.00;;;13.30;99.90;;;;;;5015722;28;20445;-86
2021/10/15 08:05:42;;;;;;;6.53;4.20;;;12.80;99.90;;;;;;5005828;28;20445;-86
2021/10/15 08:08:11;;;;;;;8.93;4.00;;;;;;;;;;5005455;28;20527;-86
2021/10/15 08:10:38;;;;;;;8.00;6.20;;;;;;;;;;5005913;28;20581;-86
2021/10/15 08:13:05;;;;;;;7.50;4.87;;;12.90;99.90;;;;;;5007682;28;20510;-86
2021/10/15 08:15:31;;;;;;;7.47;4.17;;;13.00;99.90;;;;;;5010097;28;20495;-87
2021/10/15 08:17:59;;;;;;;5.77;5.23;;;;;;;;;;5018674;28;20465;-86
2021/10/15 08:20:26;;;;;;;5.40;4.50;;;12.90;99.90;;;;;;5020613;28;20445;-86
2021/10/15 08:22:54;;;;;;;4.40;4.00;;;12.90;99.90;;;;;;5020516;28;20424;-86
2021/10/15 08:25:22;;;;;;;6.00;4.47;;;12.90;99.90;;;;;;5020275;28;20434;-85
2021/10/15 08:27:48;;;;;;;15.57;4.83;;;12.90;99.90;;;;;;5010352;28;20465;-86
2021/10/15 08:30:16;;;;;;;5.00;4.50;;;12.90;99.90;;;;;;5006893;28;20481;-85
2021/10/15 08:32:43;;;;;;;7.10;4.50;;;12.90;99.90;;;;;;5004893;28;20489;-85
2021/10/15 08:35:10;;;;;;;4.23;3.83;;;12.90;99.90;;;;;;5004141;28;20435;-84
2021/10/15 08:37:37;;;;;;;5.00;4.13;;;12.90;99.90;;;;;;5007091;28;20479;-86
2021/10/15 08:40:05;;;;;;;7.93;4.90;;;12.90;99.90;;;;;;5013189;28;20443;-84
2021/10/15 08:42:35;;;;;;;5.63;4.33;;;12.90;99.90;;;;;;5020105;28;20412;-85
2021/10/15 08:45:05;;;;;;;4.10;3.70;;;12.90;99.90;;;;;;5020075;28;20433;-85
2021/10/15 08:47:32;;;;;;;4.63;4.23;;;;;;;;;;5018806;28;20465;-84
2021/10/15 08:49:59;;;;;;;5.10;4.00;;;13.00;99.90;;;;;;5018889;28;20448;-85
2021/10/15 08:52:26;;;;;;;4.87;4.37;;;;;;;;;;5012370;28;20484;-86
2021/10/15 08:54:53;;;;;;;5.13;4.17;;;13.60;99.90;;;;;;5016935;28;20433;-84
2021/10/15 08:57:20;;;;;;;4.70;4.20;;;13.00;99.90;;;;;;5018362;28;20423;-84
2021/10/15 08:59:51;;;;;;;4.40;4.00;;;13.10;99.90;;;;;;5019190;28;20408;-84
2021/10/15 09:02:19;;;;;;;29.17;18.20;;;13.10;99.90;;;;;;5018042;28;20471;-83
2021/10/15 09:04:51;;;;;;;25.23;5.37;;;13.20;99.90;;;;;;5012618;28;20547;-86
2021/10/15 09:07:21;;;;;;;11.37;3.80;;;13.10;99.90;;;;;;5008892;28;20559;-85
2021/10/15 09:09:49;;;;;;;4.63;3.50;;;13.20;99.90;;;;;;5009680;28;20544;-86
2021/10/15 09:12:17;;;;;;;4.10;3.80;;;13.20;99.90;;;;;;5008213;28;20449;-86
2021/10/15 09:14:45;;;;;;;9.50;4.07;;;13.30;99.90;;;;;;5011233;28;20445;-85
2021/10/15 09:17:15;;;;;;;6.90;4.00;;;13.30;99.90;;;;;;5010494;28;20480;-86
2021/10/15 09:19:43;;;;;;;4.87;3.80;;;13.30;99.90;;;;;;5008235;28;20438;-87
2021/10/15 09:22:22;;;;;;;6.53;4.10;;;13.30;99.90;;;;;;5008260;28;20491;-86
2021/10/15 09:24:54;;;;;;;4.80;4.13;;;13.30;99.90;;;;;;5015802;28;20410;-85
2021/10/15 09:27:25;;;;;;;5.53;3.30;;;13.40;99.90;;;;;;5015410;28;20465;-84
2021/10/15 09:29:55;;;;;;;3.43;3.03;;;13.50;99.90;;;;;;5011776;28;20426;-86
2021/10/15 09:32:25;;;;;;;5.23;3.20;;;13.50;99.90;;;;;;5008039;28;20464;-86
2021/10/15 09:34:53;;;;;;;4.70;4.10;;;13.60;99.90;;;;;;5009480;28;20433;-85
2021/10/15 09:37:22;;;;;;;4.83;3.90;;;13.60;99.90;;;;;;5013775;28;20445;-84
2021/10/15 09:39:49;;;;;;;8.57;5.97;;;13.70;99.90;;;;;;5017906;28;20418;-84
2021/10/15 09:42:26;;;;;;;6.63;5.03;;;13.70;99.90;;;;;;5018968;28;20419;-85
2021/10/15 09:44:53;;;;;;;6.60;3.83;;;13.80;99.90;;;;;;5019303;28;20440;-84
2021/10/15 09:47:24;;;;;;;3.67;3.07;;;13.80;99.90;;;;;;5018723;28;20452;-84
2021/10/15 09:49:57;;;;;;;6.10;3.57;;;13.90;99.90;;;;;;5018473;28;20417;-85
2021/10/15 09:52:26;;;;;;;4.77;3.90;;;13.90;99.90;;;;;;5016310;28;20437;-85
2021/10/15 09:54:58;;;;;;;5.30;3.93;;;13.80;99.90;;;;;;5017031;28;20445;-85
2021/10/15 09:57:30;;;;;;;7.10;3.77;;;13.50;99.90;;;;;;5005833;28;20473;-85
2021/10/15 09:59:57;;;;;;;8.43;3.63;;;13.90;99.90;;;;;;5005629;28;20960;-85
2021/10/15 10:02:26;;;;;;;4.00;3.30;;;13.80;99.90;;;;;;5009638;28;20456;-86
2021/10/15 10:04:55;;;;;;;4.53;4.00;;;13.90;99.90;;;;;;5014031;28;20441;-85
2021/10/15 10:07:22;;;;;;;4.67;3.70;;;13.70;99.90;;;;;;5013546;28;20479;-86
2021/10/15 10:09:53;;;;;;;6.10;2.10;;;13.70;99.90;;;;;;5007827;28;20476;-88
2021/10/15 10:12:25;;;;;;;3.50;2.70;;;13.60;99.90;;;;;;5011805;28;20888;-87
2021/10/15 10:14:52;;;;;;;2.90;2.57;;;;;;;;;;5004822;28;20456;-85
2021/10/15 10:17:24;;;;;;;4.93;3.17;;;13.60;99.90;;;;;;5010004;28;20484;-86
2021/10/15 10:20:00;;;;;;;4.00;3.20;;;13.60;99.90;;;;;;5013606;28;20444;-84
2021/10/15 10:22:29;;;;;;;5.63;4.60;;;13.60;99.90;;;;;;5010919;28;20507;-86
2021/10/15 10:24:58;;;;;;;6.93;3.40;;;13.60;99.90;;;;;;5003706;28;20480;-86
2021/10/15 10:27:27;;;;;;;4.37;3.70;;;13.50;99.90;;;;;;5003445;28;20477;-87
2021/10/15 10:29:55;;;;;;;4.00;3.53;;;13.60;99.90;;;;;;5003101;28;20480;-87
2021/10/15 10:32:24;;;;;;;7.17;3.73;;;13.70;99.90;;;;;;5013203;28;20536;-85
2021/10/15 10:34:53;;;;;;;4.93;2.80;;;13.70;99.90;;;;;;5011686;28;20940;-84
2021/10/15 10:37:20;;;;;;;3.10;2.80;;;13.70;99.90;;;;;;5001705;28;20875;-85
2021/10/15 10:39:48;;;;;;;3.30;3.00;;;14.10;99.90;;;;;;5002712;28;20444;-84
2021/10/15 10:42:18;;;;;;;5.20;3.00;;;13.70;99.90;;;;;;5002307;28;20824;-86
2021/10/15 10:45:13;;;;;;;3.10;2.90;;;13.70;99.90;;;;;;5002180;28;20503;-86
2021/10/15 10:47:40;;;;;;;3.73;3.43;;;13.60;99.90;;;;;;5001174;28;20539;-86
2021/10/15 10:50:12;;;;;;;4.83;3.10;;;13.50;99.90;;;;;;5000646;28;20453;-85
2021/10/15 10:53:03;;;;;;;3.77;3.00;;;13.50;99.90;;;;;;5001411;28;20448;-86
2021/10/15 10:55:39;;;;;;;4.30;3.13;;;13.60;99.90;;;;;;5005594;28;20446;-86
2021/10/15 10:58:31;;;;;;;5.63;3.23;;;13.40;99.90;;;;;;5007586;28;20882;-88
2021/10/15 11:01:28;;;;;;;6.10;3.30;;;13.40;99.90;;;;;;5006219;28;20524;-85
2021/10/15 11:03:55;;;;;;;6.83;3.90;;;;;;;;;;5014189;28;20890;-86
2021/10/15 11:06:57;;;;;;;4.70;3.23;;;13.20;99.90;;;;;;5015974;28;20931;-86
2021/10/15 11:09:32;;;;;;;6.77;4.27;;;13.10;99.90;;;;;;5014553;28;20973;-86
2021/10/15 11:11:58;;;;;;;3.93;3.53;;;13.00;99.90;;;;;;5007613;28;20439;-87
2021/10/15 11:14:51;;;;;;;7.03;4.10;;;12.80;99.90;;;;;;5005839;28;20485;-87
2021/10/15 11:17:18;;;;;;;6.80;4.20;;;12.70;99.90;;;;;;4996420;28;20480;-85
2021/10/15 11:19:45;;;;;;;5.83;4.23;;;12.70;99.90;;;;;;5006023;28;20419;-86
2021/10/15 11:22:14;;;;;;;6.20;3.87;;;12.70;99.90;;;;;;5004513;28;20452;-86
2021/10/15 11:24:55;;;;;;;5.53;3.87;;;12.70;99.90;;;;;;5017847;28;20524;-86
2021/10/15 11:27:22;;;;;;;5.03;4.20;;;12.70;99.90;;;;;;5018953;28;20465;-86
2021/10/15 11:29:50;;;;;;;5.70;4.30;;;12.60;99.90;;;;;;5019780;28;20456;-83
2021/10/15 11:32:30;;;;;;;5.77;4.77;;;12.70;99.90;;;;;;5013064;28;20449;-84
2021/10/15 11:35:05;;;;;;;9.63;6.00;;;12.70;99.90;;;;;;5007291;28;20500;-85
2021/10/15 11:38:01;;;;;;;7.67;5.37;;;12.80;99.90;;;;;;5007176;28;20526;-86
2021/10/15 11:40:31;;;;;;;6.00;4.40;;;12.80;99.90;;;;;;5008410;28;20409;-86
2021/10/15 11:43:08;;;;;;;6.00;4.00;;;12.60;99.90;;;;;;5006548;28;20446;-85
2021/10/15 11:45:38;;;;;;;6.07;5.17;;;12.50;99.90;;;;;;5004407;28;20441;-86
2021/10/15 11:48:07;;;;;;;5.53;4.90;;;12.30;99.90;;;;;;5007914;28;20507;-86
2021/10/15 11:50:56;;;;;;;5.33;4.83;;;12.40;99.90;;;;;;5008386;28;20533;-87
2021/10/15 11:53:26;;;;;;;11.60;6.87;;;12.00;99.90;;;;;;5004854;28;20508;-87
2021/10/15 11:55:53;;;;;;;15.20;9.97;;;12.10;99.90;;;;;;5013098;28;20480;-86
2021/10/15 11:58:32;;;;;;;21.80;14.00;;;12.00;99.90;;;;;;5008039;28;20468;-87
2021/10/15 12:01:19;;;;;;;16.50;12.40;;;11.90;99.90;;;;;;5010194;28;20417;-85
2021/10/15 12:03:49;;;;;;;11.13;8.60;;;11.80;99.90;;;;;;5016715;28;20460;-85
2021/10/15 12:06:26;;;;;;;9.07;8.27;;;11.80;99.90;;;;;;5017664;28;20433;-86
2021/10/15 12:08:57;;;;;;;10.20;6.13;;;11.20;99.90;;;;;;5007733;28;20443;-86
2021/10/15 12:11:26;;;;;;;5.57;4.60;;;11.70;99.90;;;;;;5001936;28;20437;-86
2021/10/15 12:13:54;;;;;;;6.43;3.93;;;11.30;99.90;;;;;;5001783;28;20485;-85
2021/10/15 12:16:23;;;;;;;3.53;3.20;;;11.30;99.90;;;;;;5002657;28;20827;-85
2021/10/15 12:19:08;;;;;;;3.50;3.20;;;11.20;99.90;;;;;;5003275;28;20505;-85
2021/10/15 12:21:38;;;;;;;4.77;3.90;;;11.10;99.90;;;;;;5006306;28;20441;-85
2021/10/15 12:24:09;;;;;;;2.87;2.57;;;12.70;99.90;;;;;;5012345;28;20444;-85
2021/10/15 12:26:37;;;;;;;2.90;2.70;;;;;;;;;;5018491;28;20433;-86
2021/10/15 12:29:03;;;;;;;3.27;2.87;;;10.90;99.90;;;;;;5005598;28;20789;-85
2021/10/15 12:31:33;;;;;;;2.30;2.10;;;10.80;99.90;;;;;;5003282;28;20947;-86
2021/10/15 12:34:04;;;;;;;2.30;2.20;;;10.80;99.90;;;;;;5005845;28;20857;-87
2021/10/15 12:36:31;;;;;;;4.00;2.70;;;10.70;99.90;;;;;;5010421;28;20436;-83
2021/10/15 12:39:33;;;;;;;3.30;3.00;;;11.00;99.90;;;;;;5020119;28;20444;-86
2021/10/15 12:42:14;;;;;;;2.27;2.07;;;10.70;99.90;;;;;;4961201;28;20425;-85
2021/10/15 12:44:41;;;;;;;2.13;1.70;;;10.60;99.90;;;;;;4960880;28;20503;-84
2021/10/15 12:47:09;;;;;;;3.77;2.30;;;10.60;99.90;;;;;;4992003;28;20419;-85
2021/10/15 12:49:58;;;;;;;5.53;2.77;;;10.50;99.90;;;;;;5019216;28;20437;-85
2021/10/15 12:52:32;;;;;;;2.77;1.90;;;10.50;99.90;;;;;;5017570;28;20441;-84
2021/10/15 12:55:07;;;;;;;4.97;2.60;;;10.50;99.90;;;;;;5016509;28;20468;-84
2021/10/15 12:57:35;;;;;;;1.80;1.47;;;10.50;99.90;;;;;;5016674;28;20458;-84
2021/10/15 13:00:08;;;;;;;2.63;2.20;;;10.80;99.90;;;;;;5017013;28;20445;-83
2021/10/15 13:02:35;;;;;;;2.47;2.27;;;10.40;99.90;;;;;;5017265;28;20452;-84
2021/10/15 13:05:06;;;;;;;3.03;1.57;;;10.70;99.90;;;;;;5016009;28;20481;-85
2021/10/15 13:07:32;;;;;;;3.10;2.23;;;10.40;99.90;;;;;;5014355;28;20464;-84
2021/10/15 13:10:12;;;;;;;1.87;1.73;;;10.50;99.90;;;;;;5013442;28;20453;-86
2021/10/15 13:12:39;;;;;;;2.77;2.57;;;10.50;99.90;;;;;;5006244;28;20445;-86
2021/10/15 13:15:06;;;;;;;3.30;2.57;;;10.50;99.90;;;;;;5002372;28;20498;-86
2021/10/15 13:17:35;;;;;;;3.90;2.00;;;10.50;99.90;;;;;;5020638;23;20511;-85
2021/10/15 13:20:06;;;;;;;3.70;3.17;;;10.60;99.90;;;;;;5030768;28;20506;-83
2021/10/15 13:22:34;;;;;;;3.00;2.13;;;10.60;99.90;;;;;;5025424;28;20436;-85
2021/10/15 13:25:04;;;;;;;3.17;2.50;;;10.60;99.90;;;;;;5027284;28;20544;-85
2021/10/15 13:27:31;;;;;;;5.20;2.80;;;10.60;99.90;;;;;;5026095;28;20471;-85
2021/10/15 13:29:57;;;;;;;60.70;54.67;;;10.90;99.90;;;;;;5029576;28;20422;-85
2021/10/15 13:32:27;;;;;;;7.57;4.20;;;10.50;99.90;;;;;;5026986;28;20419;-85
2021/10/15 13:34:54;;;;;;;3.50;2.60;;;;;;;;;;5025530;28;20456;-85
2021/10/15 13:37:26;;;;;;;4.70;3.00;;;;;;;;;;5025506;28;20544;-86
2021/10/15 13:40:00;;;;;;;2.13;2.00;;;;;;;;;;5024738;28;20502;-85
2021/10/15 13:42:48;;;;;;;2.17;1.93;;;;;;;;;;5024149;28;20423;-86
2021/10/15 13:45:24;;;;;;;2.67;2.30;;;;;;;;;;5024186;28;20487;-86
2021/10/15 13:50:32;;;;;;;2.83;2.20;;;;;;;;;;5022753;28;20410;-84
2021/10/15 13:53:00;;;;;;;5.63;1.73;;;;;;;;;;5024595;28;20449;-85
2021/10/15 13:55:26;;;;;;;6.43;2.40;;;10.40;99.90;;;;;;5024301;28;20411;-85
2021/10/15 13:58:06;;;;;;;2.70;2.27;;;10.50;99.90;;;;;;5026057;28;20433;-85
2021/10/15 14:00:35;;;;;;;4.33;2.10;;;;;;;;;;5024645;28;20430;-86
2021/10/15 14:03:10;;;;;;;3.70;2.83;;;10.50;99.90;;;;;;5025344;28;20446;-84
2021/10/15 14:05:37;;;;;;;2.50;2.30;;;;;;;;;;5031285;28;20493;-85
2021/10/15 14:08:07;;;;;;;2.30;2.17;;;10.60;99.90;;;;;;5032372;28;20577;-85
2021/10/15 14:10:37;;;;;;;1.73;1.63;;;;;;;;;;5027850;28;20499;-85
2021/10/15 14:13:16;;;;;;;3.20;2.47;;;;;;;;;;5025954;28;20454;-84
2021/10/15 14:15:46;;;;;;;2.20;2.00;;;;;;;;;;5025051;28;20434;-85
2021/10/15 14:18:23;;;;;;;1.97;1.87;;;;;;;;;;5024967;28;20977;-85
2021/10/15 14:21:00;;;;;;;3.43;2.80;;;10.80;99.90;;;;;;5026073;28;20452;-85
2021/10/15 14:23:31;;;;;;;2.30;2.10;;;;;;;;;;5023213;28;20432;-85
2021/10/15 14:26:48;;;;;;;2.00;1.90;;;10.80;99.90;;;;;;5023851;28;21044;-85
2021/10/15 14:32:43;;;;;;;2.50;1.70;;;10.80;99.90;;;;;;5025497;28;20498;-86
2021/10/15 14:35:37;;;;;;;3.90;1.73;;;10.80;99.90;;;;;;5027582;28;20813;-85
2021/10/15 14:38:15;;;;;;;2.60;1.70;;;10.80;99.90;;;;;;5036436;28;20456;-84
2021/10/15 14:40:48;;;;;;;3.47;2.00;;;10.90;99.90;;;;;;5041627;28;20462;-84
2021/10/15 14:43:18;;;;;;;6.83;2.43;;;;;;;;;;5031256;28;20547;-84
2021/10/15 14:48:46;;;;;;;4.93;2.17;;;;;;;;;;5022498;28;20514;-85
2021/10/15 14:51:19;;;;;;;2.20;1.17;;;;;;;;;;5028517;28;20575;-84
2021/10/15 14:53:50;;;;;;;4.00;1.90;;;;;;;;;;5026716;28;20464;-85
2021/10/15 14:59:05;;;;;;;3.40;2.77;;;;;;;;;;5029681;28;20459;-84
2021/10/15 15:01:41;;;;;;;3.30;2.73;;;;;;;;;;5025745;28;20457;-85
2021/10/15 15:04:20;;;;;;;5.03;2.07;;;;;;;;;;5025609;28;20478;-85
2021/10/15 15:09:31;;;;;;;5.90;2.40;;;;;;;;;;5025125;28;20447;-85
2021/10/15 15:12:18;;;;;;;3.03;2.00;;;;;;;;;;5025013;28;20456;-85
2021/10/15 15:14:50;;;;;;;4.53;2.00;;;;;;;;;;5026673;28;20531;-85
2021/10/15 15:17:29;;;;;;;3.77;2.00;;;;;;;;;;5026586;28;20457;-85
2021/10/15 15:20:01;;;;;;;7.53;2.83;;;;;;;;;;5025151;28;20463;-85
2021/10/15 15:25:19;;;;;;;6.10;1.80;;;;;;;;;;5023806;28;20514;-85
2021/10/15 15:27:59;;;;;;;6.53;2.20;;;;;;;;;;5028885;28;20467;-85
2021/10/15 15:47:26;;;;;;;8.70;2.53;;;;;;;;;;4781996;30;20459;-85
2021/10/15 15:50:24;;;;;;;5.70;1.83;;;;;;;;;;4781136;30;20490;-85
2021/10/15 15:53:24;;;;;;;5.10;2.40;;;10.60;99.90;;;;;;4800597;29;20598;-86
2021/10/15 15:56:06;;;;;;;9.47;2.53;;;10.60;99.90;;;;;;4889023;29;20446;-84
2021/10/15 15:58:41;;;;;;;3.53;2.00;;;;;;;;;;4931514;29;20512;-84
2021/10/15 16:01:21;;;;;;;4.17;2.00;;;;;;;;;;4999306;28;20471;-85
2021/10/15 16:06:36;;;;;;;5.40;2.00;;;;;;;;;;5011620;28;20498;-87
2021/10/15 16:09:05;;;;;;;7.23;2.27;;;;;;;;;;5029687;28;20465;-87
2021/10/15 16:11:32;;;;;;;6.23;2.40;;;;;;;;;;5029970;28;20527;-87
2021/10/15 16:13:59;;;;;;;2.03;1.90;;;;;;;;;;5027418;28;20430;-88
2021/10/15 16:16:26;;;;;;;59.57;33.30;;;;;;;;;;5028788;28;20532;-88
2021/10/15 16:18:54;;;;;;;11.17;3.10;;;;;;;;;;5039344;28;20475;-87
2021/10/15 16:21:21;;;;;;;5.87;3.30;;;;;;;;;;5026397;28;20456;-87
2021/10/15 16:23:48;;;;;;;5.90;2.17;;;;;;;;;;5026054;28;20458;-86
2021/10/15 16:26:15;;;;;;;7.50;3.43;;;;;;;;;;5025450;28;20423;-88
2021/10/15 16:28:42;;;;;;;4.90;2.97;;;;;;;;;;5025658;28;20465;-88
2021/10/15 16:31:12;;;;;;;8.83;2.97;;;10.30;99.90;;;;;;5029552;28;20821;-87
2021/10/15 16:33:41;;;;;;;6.07;2.73;;;;;;;;;;5030031;28;20444;-87
2021/10/15 16:36:10;;;;;;;5.13;3.70;;;;;;;;;;5027745;28;20633;-87
2021/10/15 16:38:37;;;;;;;5.30;3.77;;;;;;;;;;5026336;28;20529;-88
2021/10/15 16:41:04;;;;;;;8.07;3.30;;;;;;;;;;5031617;28;20447;-88
2021/10/15 16:43:32;;;;;;;7.33;3.50;;;;;;;;;;5024777;28;20831;-86
2021/10/15 16:45:59;;;;;;;7.90;3.30;;;;;;;;;;5023388;28;20498;-87
2021/10/15 16:48:26;;;;;;;4.37;2.80;;;;;;;;;;5032045;28;20209;-87
2021/10/15 16:50:53;;;;;;;6.20;3.67;;;;;;;;;;5027444;28;20502;-87
2021/10/15 16:53:22;;;;;;;7.03;3.40;;;10.20;99.90;;;;;;5033164;28;20452;-88
2021/10/15 16:55:51;;;;;;;6.45;3.00;;;;;;;;;;5038525;28;20474;-88
2021/10/15 16:58:18;;;;;;;4.70;3.30;;;;;;;;;;5032696;28;20471;-87
2021/10/15 17:00:47;;;;;;;6.87;3.33;;;10.10;99.90;;;;;;5023017;28;20228;-88
2021/10/15 17:03:14;;;;;;;9.05;3.80;;;;;;;;;;5024368;28;20438;-87
2021/10/15 17:05:42;;;;;;;6.97;3.90;;;;;;;;;;5014853;28;20204;-88
2021/10/15 17:08:10;;;;;;;4.70;3.30;;;;;;;;;;5027000;28;20491;-87
2021/10/15 17:10:41;;;;;;;3.10;2.80;;;10.10;99.90;;;;;;5022702;28;20448;-87
2021/10/15 17:13:11;;;;;;;7.87;5.60;;;;;;;;;;5025007;28;20880;-87
2021/10/15 17:15:39;;;;;;;6.63;3.97;;;;;;;;;;5009946;28;20471;-87
2021/10/15 17:18:11;;;;;;;3.60;3.13;;;10.10;99.90;;;;;;5023873;28;20909;-87
2021/10/15 17:20:38;;;;;;;6.43;4.10;;;;;;;;;;5025216;28;20445;-87
2021/10/15 17:23:11;;;;;;;8.20;3.40;;;;;;;;;;5029364;28;20426;-87
2021/10/15 17:25:41;;;;;;;6.60;3.60;;;10.20;99.90;;;;;;5025976;28;20447;-87
2021/10/15 17:28:08;;;;;;;9.17;3.80;;;;;;;;;;5027181;28;20480;-87
2021/10/15 17:30:40;;;;;;;6.00;3.50;;;;;;;;;;5028891;28;20437;-87
2021/10/15 17:33:24;;;;;;;5.60;3.77;;;;;;;;;;5031614;28;20438;-87
2021/10/15 17:35:52;;;;;;;9.03;3.97;;;;;;;;;;5022354;28;20955;-87
2021/10/15 17:38:20;;;;;;;5.93;4.33;;;;;;;;;;5022414;28;20467;-88
2021/10/15 17:40:51;;;;;;;8.20;5.33;;;10.00;99.90;;;;;;5029775;28;20447;-87
2021/10/15 17:43:26;;;;;;;12.13;4.82;;;;;;;;;;5033729;28;20898;-87
2021/10/15 17:48:25;;;;;;;10.03;4.60;;;;;;;;;;4971618;28;20479;-88
2021/10/15 17:51:07;;;;;;;6.60;4.37;;;10.00;99.90;;;;;;4971179;29;20427;-87
2021/10/15 17:53:40;;;;;;;8.00;4.70;;;;;;;;;;4970096;29;20466;-87
2021/10/15 17:56:10;;;;;;;9.20;4.17;;;;;;;;;;4965301;29;20458;-87
2021/10/15 17:58:37;;;;;;;9.40;5.50;;;9.90;99.90;;;;;;5000924;23;20445;-84
2021/10/15 18:01:03;;;;;;;11.33;4.63;;;9.90;99.90;;;;;;5026502;28;20189;-84
2021/10/15 18:03:30;;;;;;;13.47;5.00;;;9.90;99.90;;;;;;5022766;28;21014;-84
2021/10/15 18:05:57;;;;;;;10.67;5.53;;;9.90;99.90;;;;;;5031823;28;20415;-81
2021/10/15 18:08:23;;;;;;;7.28;5.15;;;9.60;99.90;;;;;;5031609;28;20977;-82
2021/10/15 18:10:51;;;;;;;7.90;4.77;;;9.50;99.90;;;;;;5029857;28;20628;-82
2021/10/15 18:13:20;;;;;;;9.88;5.30;;;9.80;99.90;;;;;;5024763;28;20446;-83
2021/10/15 18:15:47;;;;;;;10.77;5.50;;;9.80;99.90;;;;;;5025379;28;20299;-83
2021/10/15 18:18:14;;;;;;;10.37;6.47;;;9.70;99.90;;;;;;5021280;28;20824;-82
2021/10/15 18:20:41;;;;;;;10.10;5.80;;;9.80;99.90;;;;;;5021400;28;20452;-82
2021/10/15 18:23:07;;;;;;;8.23;5.63;;;9.90;99.90;;;;;;5021479;28;20451;-83
2021/10/15 18:25:34;;;;;;;9.30;4.63;;;10.10;99.90;;;;;;5021277;28;20959;-84
2021/10/15 18:28:00;;;;;;;9.93;5.33;;;10.20;99.90;;;;;;5022256;28;20942;-83
2021/10/15 18:30:28;;;;;;;14.70;6.10;;;10.10;99.90;;;;;;5021395;28;20498;-83
2021/10/15 18:32:55;;;;;;;7.33;5.83;;;10.10;99.90;;;;;;5019539;28;20459;-83
2021/10/15 18:35:23;;;;;;;10.17;6.10;;;10.20;99.90;;;;;;5022528;28;20507;-83
2021/10/15 18:37:51;;;;;;;13.53;5.33;;;10.30;99.90;;;;;;5033127;28;20483;-83
2021/10/15 18:40:19;;;;;;;6.80;5.07;;;10.30;99.90;;;;;;5030502;28;20468;-82
2021/10/15 18:42:45;;;;;;;9.80;5.07;;;10.10;99.90;;;;;;5023329;28;20447;-83
2021/10/15 18:45:12;;;;;;;12.83;4.07;;;10.00;99.90;;;;;;5024790;28;20418;-84
2021/10/15 18:47:40;;;;;;;14.63;4.80;;;9.90;99.90;;;;;;5024966;28;20468;-83
2021/10/15 18:50:08;;;;;;;7.57;3.80;;;9.90;99.90;;;;;;5024280;28;20459;-82
2021/10/15 18:52:35;;;;;;;12.50;4.50;;;10.10;99.90;;;;;;5024170;28;20263;-84
2021/10/15 18:55:02;;;;;;;6.00;3.10;;;10.10;99.90;;;;;;5025365;28;21005;-83
2021/10/15 18:57:28;;;;;;;7.00;4.33;;;9.90;99.90;;;;;;5023843;28;20507;-83
2021/10/15 18:59:55;;;;;;;5.70;3.30;;;9.90;99.90;;;;;;5021899;28;20562;-83
2021/10/15 19:02:25;;;;;;;12.07;4.13;;;9.90;99.90;;;;;;5029370;28;20475;-81
2021/10/15 19:04:53;;;;;;;7.13;3.00;;;9.90;99.90;;;;;;5032578;28;20468;-82
2021/10/15 19:07:19;;;;;;;8.93;3.23;;;9.90;99.90;;;;;;5027970;28;20486;-84
2021/10/15 19:09:46;;;;;;;9.70;3.10;;;9.70;99.90;;;;;;5020412;28;20431;-84
2021/10/15 19:12:13;;;;;;;5.20;2.73;;;10.00;99.90;;;;;;5031442;28;20482;-84
2021/10/15 19:14:39;;;;;;;6.63;3.97;;;10.00;99.90;;;;;;5034552;28;20471;-83
2021/10/15 19:17:06;;;;;;;14.13;3.90;;;9.90;99.90;;;;;;5032540;28;20414;-85
2021/10/15 19:19:33;;;;;;;6.43;2.87;;;9.90;99.90;;;;;;5025050;28;20478;-82
2021/10/15 19:22:01;;;;;;;8.10;3.13;;;9.90;99.90;;;;;;5023775;28;20448;-85
2021/10/15 19:24:28;;;;;;;6.70;2.90;;;9.80;99.90;;;;;;5024619;28;20459;-85
2021/10/15 19:26:56;;;;;;;8.50;3.93;;;9.90;99.90;;;;;;5029855;28;20475;-84
2021/10/15 19:29:23;;;;;;;4.40;2.20;;;9.90;99.90;;;;;;5025819;28;20809;-83
2021/10/15 19:31:51;;;;;;;10.10;3.50;;;9.90;99.90;;;;;;5026685;28;20448;-84
2021/10/15 19:34:17;;;;;;;7.73;2.80;;;10.20;99.90;;;;;;5025568;28;20423;-84
2021/10/15 19:36:44;;;;;;;11.00;2.97;;;9.80;99.90;;;;;;5024357;28;20448;-83
2021/10/15 19:39:12;;;;;;;16.03;3.13;;;9.90;99.90;;;;;;5024706;28;20555;-83
2021/10/15 19:41:39;;;;;;;8.00;3.10;;;10.10;99.90;;;;;;5024272;28;20921;-84
2021/10/15 19:44:06;;;;;;;9.27;2.40;;;9.80;99.90;;;;;;5024111;28;20451;-83
2021/10/15 19:46:33;;;;;;;4.90;3.10;;;9.90;99.90;;;;;;5023821;28;20479;-84
2021/10/15 19:48:59;;;;;;;6.83;2.60;;;9.80;99.90;;;;;;5023274;28;20472;-83
2021/10/15 19:51:26;;;;;;;7.50;2.27;;;9.90;99.90;;;;;;5024156;28;20447;-84
2021/10/15 19:53:53;;;;;;;8.80;3.40;;;9.80;99.90;;;;;;5024627;28;20471;-82
2021/10/15 19:56:21;;;;;;;8.50;3.30;;;9.80;99.90;;;;;;5022511;28;20470;-84
2021/10/15 19:58:47;;;;;;;8.00;3.80;;;9.80;99.90;;;;;;5024097;28;20294;-84
2021/10/15 20:01:14;;;;;;;4.53;2.73;;;9.80;99.90;;;;;;5024236;28;20487;-83
2021/10/15 20:03:42;;;;;;;6.10;3.03;;;9.80;99.90;;;;;;5024135;28;20448;-83
2021/10/15 20:06:08;;;;;;;8.30;3.60;;;9.60;99.90;;;;;;5025042;28;20483;-84
2021/10/15 20:08:35;;;;;;;8.23;3.40;;;;;;;;;;5023477;28;20497;-84
2021/10/15 20:11:02;;;;;;;6.63;3.40;;;9.70;99.90;;;;;;5024067;28;20209;-85
2021/10/15 20:13:31;;;;;;;8.70;3.47;;;9.60;99.90;;;;;;5023414;28;20438;-85
2021/10/15 20:15:57;;;;;;;9.27;3.45;;;9.70;99.90;;;;;;5023913;28;20431;-84
2021/10/15 20:18:24;;;;;;;8.23;4.50;;;9.30;99.90;;;;;;5025671;28;20235;-83
2021/10/15 20:20:51;;;;;;;11.57;2.73;;;9.60;99.90;;;;;;5032585;28;20473;-81
2021/10/15 20:23:19;;;;;;;9.90;3.30;;;9.60;99.90;;;;;;5036147;28;20415;-83
2021/10/15 20:25:46;;;;;;;4.87;2.17;;;9.60;99.90;;;;;;5033920;28;20530;-83
2021/10/15 20:28:13;;;;;;;9.73;3.50;;;9.50;99.90;;;;;;5030947;28;20444;-82
2021/10/15 20:30:41;;;;;;;5.93;3.43;;;9.50;99.90;;;;;;5034175;28;20418;-82
2021/10/15 20:33:08;;;;;;;9.57;3.07;;;9.50;99.90;;;;;;5037921;28;20432;-82
2021/10/15 20:35:35;;;;;;;4.73;2.50;;;9.50;99.90;;;;;;5040609;28;20436;-83
2021/10/15 20:38:01;;;;;;;6.60;2.97;;;9.70;99.90;;;;;;5040260;28;20455;-83
2021/10/15 20:40:29;;;;;;;6.00;2.65;;;9.50;99.90;;;;;;5038786;28;20423;-82
2021/10/15 20:42:55;;;;;;;10.13;3.20;;;9.50;99.90;;;;;;5040156;28;20232;-83
2021/10/15 20:45:23;;;;;;;7.10;4.07;;;9.50;99.90;;;;;;5029151;28;20579;-82
2021/10/15 20:47:51;;;;;;;5.90;3.30;;;9.20;99.90;;;;;;5034874;28;20539;-82
2021/10/15 20:50:18;;;;;;;4.60;2.50;;;9.50;99.90;;;;;;5035539;28;20438;-81
2021/10/15 20:52:45;;;;;;;7.63;3.27;;;9.40;99.90;;;;;;5029766;28;20792;-84
2021/10/15 20:55:11;;;;;;;6.43;2.57;;;9.50;99.90;;;;;;5025911;28;20448;-82
2021/10/15 20:57:38;;;;;;;7.27;3.40;;;9.40;99.90;;;;;;5024887;28;20448;-83
2021/10/15 21:00:07;;;;;;;6.37;3.50;;;9.40;99.90;;;;;;5022000;28;20488;-84